Time;durP1;ratioP1;P1;durP2;ratioP2;P2;SDS_P1;SDS_P2;PMS_P1;PMS_P2;Temp;Humidity;BMP_temperature;BMP_pressure;BME280_temperature;BME280_humidity;BME280_pressure;Samples;Min_cycle;Max_cycle;Signal;HPM_P1;HPM_P2
2022/10/28 00:01:20;;;;;;;15.10;12.10;;;12.50;99.90;;;12.65;96.07;98791.00;5065953;28;20455;-73
2022/10/28 00:03:49;;;;;;;13.97;12.43;;;12.50;99.90;;;12.59;95.98;98791.84;5041062;28;20966;-73
2022/10/28 00:06:20;;;;;;;14.93;11.43;;;12.30;99.90;;;12.56;95.50;98782.25;5041595;28;20460;-73
2022/10/28 00:08:48;;;;;;;13.30;11.80;;;12.30;99.90;;;12.63;95.03;98793.09;5066744;28;20465;-73
2022/10/28 00:11:17;;;;;;;19.93;12.60;;;12.30;99.90;;;12.58;95.00;98795.59;5068541;28;20528;-73
2022/10/28 00:13:46;;;;;;;13.20;11.70;;;12.30;99.90;;;12.61;94.84;98787.03;5050808;28;20512;-74
2022/10/28 00:16:17;;;;;;;16.03;12.43;;;12.30;99.90;;;12.70;94.40;98796.63;5042648;28;20574;-73
2022/10/28 00:18:46;;;;;;;14.20;11.00;;;12.30;99.90;;;12.67;94.27;98788.94;5042973;28;20815;-73
2022/10/28 00:21:17;;;;;;;16.87;11.93;;;12.40;99.90;;;12.67;94.27;98797.06;5044265;28;20979;-72
2022/10/28 00:23:45;;;;;;;19.53;12.43;;;12.30;99.90;;;12.66;94.14;98798.09;5044689;28;20522;-72
2022/10/28 00:26:15;;;;;;;17.43;11.73;;;12.30;99.90;;;12.54;94.51;98794.34;5066041;28;20453;-71
2022/10/28 00:28:44;;;;;;;16.20;12.23;;;12.30;99.90;;;12.51;94.80;98800.16;5049357;28;20454;-73
2022/10/28 00:31:14;;;;;;;16.20;12.40;;;12.20;99.90;;;12.34;94.96;98751.81;5049801;28;20483;-71
2022/10/28 00:33:43;;;;;;;13.03;11.17;;;12.30;99.90;;;12.46;95.08;98798.94;5061009;28;20443;-74
2022/10/28 00:36:15;;;;;;;13.10;11.90;;;12.20;99.90;;;12.38;96.03;98791.03;5051882;28;20459;-73
2022/10/28 00:38:44;;;;;;;11.77;10.57;;;12.10;99.90;;;12.11;96.63;98746.81;5058682;28;20523;-73
2022/10/28 00:41:14;;;;;;;13.57;12.07;;;12.20;99.90;;;12.42;96.97;98780.59;5068415;28;20441;-74
2022/10/28 00:43:45;;;;;;;14.67;12.70;;;12.10;99.90;;;12.33;96.79;98771.81;5063682;28;20470;-74
2022/10/28 00:46:32;;;;;;;17.87;11.97;;;12.20;99.90;;;12.52;97.00;98794.56;5063595;28;20594;-74
2022/10/28 00:49:06;;;;;;;13.33;11.93;;;12.20;99.90;;;12.59;96.69;98791.84;5049328;28;20460;-75
2022/10/28 00:51:35;;;;;;;12.90;11.57;;;12.30;99.90;;;12.73;95.83;98785.38;5041963;28;20549;-74
2022/10/28 00:54:04;;;;;;;13.20;11.63;;;12.40;99.90;;;12.67;95.21;98769.94;5065758;28;20457;-73
2022/10/28 00:56:40;;;;;;;14.43;12.53;;;12.40;99.90;;;12.78;95.30;98784.75;5039336;28;20465;-72
2022/10/28 00:59:17;;;;;;;17.07;11.03;;;12.40;99.90;;;12.81;95.23;98791.59;5038390;28;20532;-73
2022/10/28 01:01:44;;;;;;;13.00;10.60;;;12.50;99.90;;;12.68;95.50;98782.47;5046782;28;20465;-72
2022/10/28 01:04:13;;;;;;;14.90;11.57;;;12.40;99.90;;;12.56;96.08;98797.69;5042559;28;20460;-72
2022/10/28 01:06:41;;;;;;;12.70;11.40;;;12.30;99.90;;;12.41;96.47;98789.75;5043953;28;20466;-73
2022/10/28 01:09:08;;;;;;;15.17;12.27;;;12.20;99.90;;;12.47;97.09;98803.31;5053177;28;20455;-73
2022/10/28 01:11:54;;;;;;;14.30;12.33;;;12.10;99.90;;;12.68;95.36;98796.03;5057002;28;20958;-73
2022/10/28 01:14:51;;;;;;;17.27;12.00;;;12.30;99.90;;;12.64;94.83;98789.31;5043543;28;20451;-72
2022/10/28 01:17:45;;;;;;;13.27;11.87;;;12.30;99.90;;;12.63;94.75;98803.94;5037254;28;20803;-72
2022/10/28 01:21:10;;;;;;;12.67;11.47;;;12.40;99.90;;;12.67;94.50;98783.50;5041311;28;20456;-73
2022/10/28 01:23:52;;;;;;;12.40;11.30;;;12.40;99.90;;;12.61;94.24;98784.34;5042649;28;20460;-72
2022/10/28 01:26:39;;;;;;;15.03;12.07;;;12.40;99.90;;;12.49;94.59;98780.59;5029547;28;21030;-73
2022/10/28 01:29:41;;;;;;;14.43;12.00;;;12.30;99.90;;;12.24;95.84;98783.94;5047055;28;20454;-72
2022/10/28 01:32:17;;;;;;;15.20;12.00;;;12.10;99.90;;;12.06;96.65;98774.53;5029390;28;21507;-72
2022/10/28 01:34:54;;;;;;;15.23;12.20;;;11.90;99.90;;;11.67;96.77;98725.47;5035464;28;20951;-71
2022/10/28 01:37:31;;;;;;;16.50;12.70;;;11.80;99.90;;;12.07;97.53;98791.63;5033144;28;21325;-72
2022/10/28 01:40:05;;;;;;;17.03;13.30;;;11.80;99.90;;;12.18;97.43;98786.41;5036952;28;21026;-73
2022/10/28 01:42:42;;;;;;;18.53;12.10;;;11.80;99.90;;;12.09;98.01;98784.97;5037857;28;20446;-75
2022/10/28 01:45:16;;;;;;;17.40;12.70;;;12.00;99.90;;;12.02;97.88;98778.69;5039640;28;20463;-74
2022/10/28 01:47:51;;;;;;;15.53;13.70;;;12.00;99.90;;;12.23;97.37;98782.25;5035806;28;20463;-74
2022/10/28 01:50:23;;;;;;;17.57;13.70;;;12.10;99.90;;;12.26;96.74;98777.25;5040189;28;20488;-71
2022/10/28 01:52:54;;;;;;;18.53;12.60;;;12.10;99.90;;;12.21;96.24;98773.47;5036698;28;20531;-72
2022/10/28 01:55:26;;;;;;;13.47;11.90;;;12.10;99.90;;;12.25;96.62;98774.75;5036758;28;20460;-73
2022/10/28 01:57:57;;;;;;;17.27;12.20;;;12.10;99.90;;;12.26;96.47;98784.56;5045625;28;20458;-73
2022/10/28 02:00:25;;;;;;;19.67;13.60;;;12.20;99.90;;;12.16;96.77;98756.00;5038130;28;20556;-75
2022/10/28 02:02:55;;;;;;;16.90;12.67;;;12.20;99.90;;;12.06;97.50;98755.59;5027541;28;20532;-73
2022/10/28 02:05:41;;;;;;;15.17;12.67;;;12.10;99.90;;;12.13;98.09;98764.53;5031689;28;20455;-74
2022/10/28 02:08:44;;;;;;;20.33;12.70;;;12.10;99.90;;;12.07;98.21;98738.28;5037258;28;22695;-74
2022/10/28 02:11:34;;;;;;;16.83;12.80;;;12.20;99.90;;;12.19;97.90;98758.28;5029127;28;20505;-72
2022/10/28 02:14:19;;;;;;;23.80;11.80;;;12.20;99.90;;;12.11;98.03;98744.94;5039673;28;20511;-72
2022/10/28 02:16:51;;;;;;;18.10;12.30;;;12.20;99.90;;;12.09;98.00;98733.50;5032734;28;20467;-74
2022/10/28 02:19:32;;;;;;;16.63;12.57;;;12.20;99.90;;;12.24;97.59;98749.53;5036406;28;20463;-75
2022/10/28 02:22:15;;;;;;;18.40;12.97;;;12.20;99.90;;;12.32;97.50;98753.91;5039969;28;20488;-74
2022/10/28 02:24:51;;;;;;;14.20;12.70;;;12.30;99.90;;;12.38;96.93;98747.66;5038925;28;20600;-73
2022/10/28 02:27:30;;;;;;;14.53;13.03;;;12.30;99.90;;;12.37;97.00;98745.16;5041824;28;20517;-76
2022/10/28 02:30:05;;;;;;;13.83;12.00;;;12.30;99.90;;;12.40;97.24;98745.56;5043393;28;20471;-70
2022/10/28 02:32:37;;;;;;;14.00;12.10;;;12.40;99.90;;;12.53;96.57;98738.47;5030362;28;20478;-73
2022/10/28 02:35:12;;;;;;;12.53;11.23;;;12.40;99.90;;;12.52;96.39;98742.25;5037096;28;21058;-73
2022/10/28 02:37:43;;;;;;;14.90;12.60;;;12.30;99.90;;;12.52;96.34;98739.53;5039788;28;20995;-71
2022/10/28 02:40:16;;;;;;;16.80;11.57;;;12.30;99.90;;;12.49;96.41;98742.63;5046244;28;20551;-71
2022/10/28 02:42:49;;;;;;;15.80;11.37;;;12.40;99.90;;;12.51;96.26;98740.53;5045826;28;20461;-72
2022/10/28 02:45:21;;;;;;;16.40;11.47;;;12.30;99.90;;;12.57;95.92;98750.56;5035850;28;20463;-73
2022/10/28 02:47:56;;;;;;;12.57;11.27;;;12.40;99.90;;;12.66;95.10;98754.72;5032747;28;20452;-73
2022/10/28 02:50:34;;;;;;;15.13;10.90;;;12.40;99.90;;;12.65;94.67;98752.22;5036369;28;20449;-74
2022/10/28 02:53:08;;;;;;;12.80;11.47;;;12.40;99.90;;;12.63;94.57;98755.13;5048573;28;20881;-73
2022/10/28 02:55:42;;;;;;;14.70;11.80;;;12.30;99.90;;;12.62;94.34;98750.75;5040960;28;20452;-72
2022/10/28 02:58:11;;;;;;;13.00;11.20;;;12.30;99.90;;;12.56;94.37;98748.91;5042056;28;20955;-71
2022/10/28 03:00:38;;;;;;;18.07;11.90;;;12.30;99.90;;;12.50;94.51;98744.31;5036017;28;20467;-72
2022/10/28 03:03:05;;;;;;;12.83;11.20;;;12.30;99.90;;;12.53;94.27;98741.19;5041415;28;21339;-71
2022/10/28 03:05:34;;;;;;;14.70;11.50;;;12.30;99.90;;;12.47;93.74;98730.13;5040298;28;20450;-72
2022/10/28 03:08:01;;;;;;;12.43;10.70;;;12.30;99.90;;;12.42;93.74;98727.22;5040019;28;20462;-72
2022/10/28 03:10:28;;;;;;;12.60;11.20;;;12.20;99.90;;;12.09;94.33;98706.41;5044017;28;20602;-71
2022/10/28 03:12:56;;;;;;;15.47;11.20;;;12.20;99.90;;;12.28;95.15;98747.25;5049579;28;20488;-72
2022/10/28 03:15:23;;;;;;;12.30;10.93;;;12.10;99.90;;;12.26;95.27;98749.34;5044739;28;20509;-72
2022/10/28 03:17:50;;;;;;;12.33;11.13;;;12.10;99.90;;;12.28;95.46;98745.38;5040062;28;20576;-72
2022/10/28 03:20:17;;;;;;;13.37;11.53;;;12.10;99.90;;;12.17;95.82;98741.41;5057526;28;21020;-72
2022/10/28 03:22:46;;;;;;;14.83;12.30;;;12.10;99.90;;;12.22;95.88;98739.97;5065519;28;20448;-71
2022/10/28 03:25:13;;;;;;;12.73;11.47;;;12.10;99.90;;;12.25;95.47;98747.66;5068178;28;20799;-72
2022/10/28 03:27:41;;;;;;;14.43;11.90;;;12.10;99.90;;;12.17;95.96;98754.94;5064035;28;20454;-73
2022/10/28 03:30:09;;;;;;;12.70;11.40;;;12.00;99.90;;;12.10;96.15;98746.00;5040199;28;20469;-74
2022/10/28 03:32:36;;;;;;;14.50;12.17;;;12.00;99.90;;;12.14;96.14;98747.25;5045508;28;20543;-73
2022/10/28 03:35:04;;;;;;;15.20;11.43;;;12.00;99.90;;;12.11;96.13;98726.00;5030638;28;20983;-73
2022/10/28 03:37:31;;;;;;;13.37;11.97;;;12.00;99.90;;;12.22;95.63;98742.69;5028662;28;20456;-71
2022/10/28 03:40:01;;;;;;;12.43;11.20;;;12.00;99.90;;;12.06;95.83;98735.78;5074477;28;20488;-71
2022/10/28 03:42:28;;;;;;;13.60;12.20;;;11.90;99.90;;;12.02;96.23;98735.34;5049253;28;20455;-70
2022/10/28 03:44:56;;;;;;;17.30;11.83;;;11.90;99.90;;;12.24;95.52;98748.72;5034660;28;20524;-71
2022/10/28 03:47:23;;;;;;;13.87;10.90;;;11.90;99.90;;;12.15;95.61;98740.78;5050785;28;20510;-73
2022/10/28 03:49:50;;;;;;;27.20;20.03;;;12.00;99.90;;;12.08;96.13;98726.41;5052589;28;20608;-73
2022/10/28 03:52:17;;;;;;;13.87;11.80;;;12.00;99.90;;;12.05;96.77;98732.22;5035602;28;20467;-74
2022/10/28 03:54:45;;;;;;;13.80;12.03;;;12.00;99.90;;;12.01;97.52;98734.53;5046654;28;20469;-72
2022/10/28 03:57:13;;;;;;;15.60;12.30;;;12.00;99.90;;;11.98;97.82;98729.50;5048718;28;20458;-74
2022/10/28 03:59:40;;;;;;;16.23;12.13;;;12.00;99.90;;;12.07;97.24;98732.03;5040251;28;20454;-74
2022/10/28 04:02:08;;;;;;;15.13;13.50;;;12.00;99.90;;;12.11;96.94;98731.41;5034391;28;20462;-72
2022/10/28 04:04:35;;;;;;;14.43;12.80;;;12.00;99.90;;;12.03;97.46;98737.03;5034155;28;21030;-75
2022/10/28 04:07:02;;;;;;;16.93;12.40;;;11.90;99.90;;;12.13;96.92;98729.31;5040178;28;20489;-72
2022/10/28 04:09:29;;;;;;;16.50;12.53;;;12.00;99.90;;;12.10;97.46;98737.03;5046946;28;20468;-73
2022/10/28 04:11:56;;;;;;;17.03;12.30;;;12.00;99.90;;;12.08;97.37;98731.84;5042607;28;20486;-72
2022/10/28 04:14:25;;;;;;;20.20;13.43;;;12.00;99.90;;;12.14;96.85;98739.13;5045476;28;20470;-72
2022/10/28 04:16:52;;;;;;;16.40;13.23;;;12.00;99.90;;;12.01;96.88;98736.38;5046497;28;20962;-72
2022/10/28 04:19:19;;;;;;;13.77;12.37;;;11.90;99.90;;;12.06;96.60;98739.34;5041768;28;20473;-71
2022/10/28 04:21:48;;;;;;;15.60;14.00;;;11.90;99.90;;;12.18;95.70;98743.06;5041472;28;20459;-74
2022/10/28 04:24:15;;;;;;;19.10;11.87;;;12.00;99.90;;;12.20;95.00;98740.16;5055547;28;20472;-72
2022/10/28 04:26:42;;;;;;;19.07;13.27;;;12.00;99.90;;;12.17;94.98;98738.69;5044447;28;20804;-72
2022/10/28 04:29:09;;;;;;;17.40;12.93;;;11.90;99.90;;;12.07;95.83;98741.00;5045089;28;20534;-73
2022/10/28 04:31:38;;;;;;;14.03;12.70;;;11.80;99.90;;;12.07;95.66;98729.31;5047031;28;20519;-72
2022/10/28 04:34:05;;;;;;;13.30;12.00;;;11.90;99.90;;;11.97;96.15;98735.13;5039137;28;20455;-71
2022/10/28 04:36:32;;;;;;;15.97;13.60;;;11.80;99.90;;;11.94;96.37;98735.53;5046994;28;20457;-71
2022/10/28 04:38:59;;;;;;;14.53;12.70;;;11.70;99.90;;;12.03;96.20;98745.16;5054456;28;20473;-69
2022/10/28 04:41:26;;;;;;;14.47;12.30;;;11.70;99.90;;;12.00;96.17;98751.78;5032988;28;21314;-70
2022/10/28 04:43:55;;;;;;;13.73;12.33;;;11.70;99.90;;;11.99;96.47;98749.28;5039317;28;20460;-70
2022/10/28 04:46:22;;;;;;;14.37;12.90;;;11.70;99.90;;;11.99;96.14;98749.28;5035313;28;20450;-70
2022/10/28 04:48:51;;;;;;;15.07;13.40;;;11.70;99.90;;;12.03;95.97;98746.00;5053410;28;20464;-70
2022/10/28 04:51:18;;;;;;;14.93;13.07;;;11.70;99.90;;;12.14;95.31;98743.72;5045326;28;20469;-70
2022/10/28 04:53:47;;;;;;;15.30;13.30;;;11.80;99.90;;;12.09;94.98;98738.06;5059038;28;20498;-71
2022/10/28 04:56:14;;;;;;;15.60;12.63;;;11.80;99.90;;;12.12;95.21;98743.06;5042965;28;20451;-71
2022/10/28 04:58:41;;;;;;;16.23;13.00;;;11.80;99.90;;;12.07;95.11;98751.84;5040638;28;20460;-70
2022/10/28 05:01:10;;;;;;;18.67;12.83;;;11.80;99.90;;;12.09;95.24;98749.75;5047004;28;20831;-71
2022/10/28 05:03:37;;;;;;;16.67;12.10;;;11.80;99.90;;;11.97;95.21;98746.78;5040934;28;20460;-73
2022/10/28 05:06:06;;;;;;;16.57;12.80;;;11.80;99.90;;;11.89;95.65;98745.09;5032546;28;20516;-72
2022/10/28 05:08:34;;;;;;;13.63;12.23;;;11.70;99.90;;;11.95;95.80;98742.63;5036420;28;20458;-71
2022/10/28 05:11:01;;;;;;;15.10;12.77;;;11.70;99.90;;;11.96;95.54;98747.81;5036485;28;20453;-73
2022/10/28 05:13:28;;;;;;;14.80;12.53;;;11.70;99.90;;;11.92;95.74;98748.47;5044337;28;20883;-73
2022/10/28 05:15:55;;;;;;;14.53;12.60;;;11.70;99.90;;;12.07;95.80;98768.09;5030360;28;20443;-72
2022/10/28 05:18:22;;;;;;;17.47;12.40;;;11.70;99.90;;;12.09;95.61;98766.00;5037741;28;20447;-72
2022/10/28 05:20:53;;;;;;;13.57;11.73;;;11.70;99.90;;;12.18;95.01;98778.28;5039635;28;20467;-72
2022/10/28 05:23:24;;;;;;;13.37;12.07;;;11.80;99.90;;;12.14;95.18;98768.91;5031052;28;20464;-70
2022/10/28 05:25:51;;;;;;;13.60;12.20;;;11.70;99.90;;;12.14;95.09;98760.78;5036298;28;20447;-72
2022/10/28 05:28:18;;;;;;;17.43;12.93;;;11.80;99.90;;;12.01;95.56;98774.28;5047877;28;20459;-73
2022/10/28 05:30:46;;;;;;;14.07;12.73;;;11.80;99.90;;;12.10;95.19;98762.25;5061437;28;20479;-74
2022/10/28 05:33:14;;;;;;;14.73;12.93;;;11.80;99.90;;;12.09;95.24;98762.44;5035064;28;20504;-74
2022/10/28 05:35:41;;;;;;;13.57;12.13;;;11.80;99.90;;;12.15;95.41;98765.16;5043450;28;20463;-72
2022/10/28 05:38:08;;;;;;;17.70;13.10;;;11.80;99.90;;;11.81;95.79;98710.09;5050318;28;21228;-74
2022/10/28 05:40:37;;;;;;;14.40;12.90;;;11.90;99.90;;;12.04;95.69;98741.38;5041261;28;20859;-73
2022/10/28 05:43:04;;;;;;;16.63;12.47;;;11.90;99.90;;;11.99;95.60;98752.00;5035987;28;20455;-75
2022/10/28 05:45:32;;;;;;;16.03;12.80;;;11.90;99.90;;;12.14;95.60;98752.66;5036789;28;20614;-77
2022/10/28 05:47:59;;;;;;;18.70;12.90;;;12.00;99.90;;;12.22;94.71;98751.63;5042964;28;20466;-75
2022/10/28 05:50:27;;;;;;;15.70;13.57;;;12.00;99.90;;;12.19;94.83;98735.78;5049140;28;20481;-78
2022/10/28 05:52:56;;;;;;;15.10;13.60;;;12.00;99.90;;;12.42;94.41;98769.75;5040394;28;21252;-74
2022/10/28 05:55:27;;;;;;;15.93;12.43;;;12.10;99.90;;;12.41;94.05;98757.22;5036929;28;20451;-80
2022/10/28 05:57:56;;;;;;;15.13;13.57;;;12.10;99.90;;;12.22;94.38;98750.81;5049280;28;21003;-71
2022/10/28 06:00:26;;;;;;;13.93;12.53;;;12.10;99.90;;;12.35;93.77;98763.50;5038641;28;20490;-70
2022/10/28 06:03:02;;;;;;;15.93;12.50;;;12.20;99.90;;;12.52;92.74;98770.16;5038043;28;20462;-72
2022/10/28 06:05:29;;;;;;;13.70;12.33;;;12.20;99.90;;;12.35;93.10;98767.03;5040043;28;20472;-71
2022/10/28 06:07:57;;;;;;;21.70;13.97;;;12.20;99.90;;;12.22;93.66;98765.16;5037060;28;21242;-69
2022/10/28 06:10:24;;;;;;;15.97;13.83;;;12.20;99.90;;;12.25;94.39;98761.22;5038244;28;20516;-72
2022/10/28 06:12:51;;;;;;;16.63;12.70;;;12.20;99.90;;;12.37;93.47;98778.53;5039324;28;20620;-71
2022/10/28 06:15:20;;;;;;;15.83;13.50;;;12.20;99.90;;;12.47;93.08;98778.91;5044839;28;20459;-69
2022/10/28 06:17:48;;;;;;;15.47;13.70;;;12.30;99.90;;;12.43;92.97;98782.25;5048311;28;20454;-70
2022/10/28 06:20:16;;;;;;;17.30;12.20;;;12.30;99.90;;;12.07;92.89;98719.34;5043961;28;20463;-70
2022/10/28 06:22:49;;;;;;;17.13;13.73;;;12.30;99.90;;;12.54;92.73;98783.50;5043893;28;20461;-72
2022/10/28 06:25:16;;;;;;;15.80;13.30;;;12.40;99.90;;;12.56;92.41;98789.56;5045833;28;20876;-70
2022/10/28 06:27:44;;;;;;;15.17;13.03;;;12.40;99.90;;;12.74;91.71;98789.75;5040052;28;20457;-70
2022/10/28 06:30:12;;;;;;;14.13;12.60;;;12.50;99.90;;;12.68;91.49;98771.63;5037570;28;20521;-69
2022/10/28 06:32:41;;;;;;;23.33;12.47;;;12.50;99.90;;;12.68;92.00;98785.19;5034019;28;21399;-70
2022/10/28 06:35:08;;;;;;;19.10;13.70;;;12.60;99.90;;;12.73;91.92;98781.81;5035156;28;20532;-69
2022/10/28 06:37:36;;;;;;;15.43;12.93;;;12.60;99.90;;;12.69;92.34;98781.41;5035668;28;20455;-71
2022/10/28 06:40:03;;;;;;;20.60;13.33;;;12.60;99.90;;;12.70;92.15;98777.66;5038956;28;20505;-72
2022/10/28 06:42:31;;;;;;;16.20;12.60;;;12.60;99.90;;;12.70;92.40;98783.09;5041360;28;20482;-72
2022/10/28 06:44:58;;;;;;;15.73;12.70;;;12.60;99.90;;;12.83;92.11;98781.41;5036889;28;20865;-70
2022/10/28 06:47:26;;;;;;;13.70;12.30;;;12.70;99.90;;;12.88;91.56;98801.38;5036304;28;20456;-71
2022/10/28 06:49:54;;;;;;;15.40;12.30;;;12.70;99.90;;;12.91;91.62;98805.56;5037141;28;20495;-71
2022/10/28 06:52:21;;;;;;;16.87;12.70;;;12.70;99.90;;;12.89;91.49;98804.94;5035803;28;20468;-74
2022/10/28 06:54:48;;;;;;;21.87;13.60;;;12.80;99.90;;;12.77;92.14;98810.19;5040514;28;20480;-71
2022/10/28 06:57:15;;;;;;;14.20;12.30;;;12.70;99.90;;;12.77;92.34;98806.63;5034828;28;20584;-71
2022/10/28 06:59:43;;;;;;;15.57;12.90;;;12.70;99.90;;;12.87;91.96;98823.31;5032125;28;20466;-70
2022/10/28 07:02:11;;;;;;;15.43;13.00;;;12.70;99.90;;;12.99;91.39;98813.50;5038395;28;21035;-70
2022/10/28 07:04:39;;;;;;;15.67;12.57;;;12.70;99.90;;;13.13;90.95;98830.56;5039837;28;20526;-70
2022/10/28 07:07:07;;;;;;;17.90;13.17;;;12.80;99.90;;;12.82;91.04;98815.00;5039546;28;20455;-71
2022/10/28 07:09:38;;;;;;;14.70;11.60;;;12.80;99.90;;;13.02;90.68;98818.50;5032964;28;20456;-71
2022/10/28 07:12:07;;;;;;;17.33;12.53;;;12.90;99.90;;;13.24;89.81;98826.34;5030363;28;20469;-70
2022/10/28 07:14:34;;;;;;;16.57;13.03;;;13.00;99.90;;;13.42;89.10;98850.09;5047050;28;20482;-72
2022/10/28 07:17:02;;;;;;;16.03;12.43;;;13.10;99.90;;;13.55;88.40;98848.44;5038145;28;20474;-71
2022/10/28 07:19:29;;;;;;;14.33;12.40;;;13.30;99.90;;;13.67;88.04;98829.56;5036110;28;20524;-71
2022/10/28 07:21:56;;;;;;;14.50;11.97;;;13.40;99.90;;;13.68;86.72;98831.25;5036299;28;20468;-71
2022/10/28 07:24:25;;;;;;;16.97;12.00;;;13.50;99.90;;;13.59;87.24;98825.22;5033398;28;20912;-68
2022/10/28 07:26:52;;;;;;;14.67;12.80;;;13.60;99.20;;;13.53;87.77;98799.78;5039669;28;20469;-70
2022/10/28 07:29:20;;;;;;;14.57;10.70;;;13.60;99.90;;;13.44;88.47;98772.03;5039902;28;20476;-70
2022/10/28 07:31:47;;;;;;;15.67;11.37;;;13.50;99.90;;;13.34;89.08;98727.38;5041221;28;20459;-69
2022/10/28 07:34:14;;;;;;;16.93;12.87;;;13.40;99.90;;;13.22;90.08;98683.81;5038841;28;21295;-69
2022/10/28 07:36:41;;;;;;;13.50;12.10;;;13.30;99.90;;;13.16;90.81;98644.81;5030718;28;20456;-69
2022/10/28 07:39:10;;;;;;;17.33;12.83;;;13.20;99.90;;;13.58;88.63;98702.25;5034044;28;20471;-70
2022/10/28 07:41:39;;;;;;;12.33;10.80;;;13.40;99.90;;;13.48;88.90;98788.72;5034950;28;20471;-72
2022/10/28 07:44:07;;;;;;;11.83;10.30;;;13.50;99.90;;;13.48;88.95;98772.44;5032528;28;20451;-69
2022/10/28 07:46:34;;;;;;;10.97;9.80;;;13.50;99.90;;;13.77;87.39;98759.34;5038330;28;20457;-71
2022/10/28 07:49:02;;;;;;;10.40;9.37;;;13.70;98.90;;;14.21;84.80;98802.94;5040543;28;20464;-71
2022/10/28 07:51:29;;;;;;;9.80;8.80;;;14.00;97.00;;;14.43;83.15;98802.59;5034537;28;20511;-70
2022/10/28 07:53:56;;;;;;;12.00;10.27;;;14.20;95.50;;;14.41;83.55;98774.78;5028787;28;20512;-71
2022/10/28 07:56:24;;;;;;;13.07;9.73;;;14.30;95.10;;;14.55;83.72;98781.75;5033924;28;20509;-71
2022/10/28 07:58:53;;;;;;;13.57;9.40;;;14.30;95.60;;;15.01;81.33;98796.00;5028793;28;20494;-70
2022/10/28 08:01:21;;;;;;;16.10;11.13;;;14.60;95.10;;;15.20;80.19;98782.38;5035030;28;20460;-71
2022/10/28 08:03:48;;;;;;;16.73;9.60;;;14.80;94.10;;;14.84;80.00;98710.59;5030447;28;20877;-71
2022/10/28 08:06:18;;;;;;;11.97;8.93;;;15.00;93.60;;;15.06;80.16;98764.53;5033834;28;20466;-72
2022/10/28 08:08:47;;;;;;;12.30;9.13;;;15.10;92.90;;;15.34;80.06;98768.63;5034620;28;21275;-71
2022/10/28 08:11:17;;;;;;;12.73;10.20;;;15.10;92.80;;;15.82;78.33;98786.03;5034856;28;20463;-71
2022/10/28 08:13:45;;;;;;;9.00;7.53;;;15.40;92.70;;;16.35;75.58;98795.34;5036530;28;20489;-71
2022/10/28 08:16:14;;;;;;;12.90;9.17;;;15.80;91.80;;;16.79;74.63;98780.56;5039137;28;20456;-70
2022/10/28 08:18:41;;;;;;;10.23;8.33;;;16.20;91.40;;;15.90;76.26;98779.47;5041325;28;20457;-70
2022/10/28 08:21:11;;;;;;;9.37;8.47;;;16.10;90.60;;;15.69;77.66;98762.50;5045141;28;20488;-71
2022/10/28 08:23:38;;;;;;;12.60;8.13;;;15.70;91.10;;;16.37;75.75;98773.28;5027901;28;20457;-71
2022/10/28 08:26:06;;;;;;;11.10;7.60;;;15.90;91.30;;;16.80;74.08;98776.75;5039613;28;20522;-70
2022/10/28 08:28:33;;;;;;;10.40;7.93;;;16.30;90.80;;;17.19;72.88;98785.28;5036774;28;20535;-70
2022/10/28 08:31:02;;;;;;;10.37;7.20;;;16.60;90.50;;;16.65;72.91;98775.31;5037573;28;20530;-70
2022/10/28 08:33:32;;;;;;;12.23;7.97;;;16.70;89.70;;;15.95;75.07;98768.69;5032283;28;20563;-70
2022/10/28 08:35:59;;;;;;;11.00;7.07;;;16.20;89.80;;;16.08;75.43;98771.22;5030374;28;20469;-69
2022/10/28 08:38:26;;;;;;;8.07;7.27;;;16.00;90.30;;;16.19;75.13;98775.03;5038782;28;20453;-69
2022/10/28 08:41:03;;;;;;;10.33;6.57;;;16.00;90.30;;;16.28;74.26;98767.31;5035823;28;20500;-70
2022/10/28 08:43:52;;;;;;;10.80;7.90;;;16.10;90.30;;;16.19;74.57;98785.94;5040872;28;20987;-69
2022/10/28 08:46:30;;;;;;;10.57;6.97;;;16.10;90.10;;;16.39;74.26;98766.53;5028816;28;21317;-70
2022/10/28 08:49:02;;;;;;;8.20;6.90;;;16.10;90.20;;;16.41;74.30;98767.13;5036108;28;20497;-71
2022/10/28 08:51:37;;;;;;;9.53;6.87;;;16.10;90.10;;;16.23;74.27;98761.75;5034761;28;21464;-75
2022/10/28 08:54:14;;;;;;;9.00;6.30;;;16.10;90.00;;;16.23;74.59;98759.88;5031727;28;20469;-72
2022/10/28 08:56:45;;;;;;;11.63;5.90;;;16.00;90.10;;;16.31;73.94;98750.53;5038392;28;20521;-73
2022/10/28 08:59:19;;;;;;;12.63;6.90;;;16.10;90.00;;;16.26;73.84;98766.75;5043267;28;20471;-73
2022/10/28 09:01:49;;;;;;;9.53;6.07;;;16.10;90.00;;;16.59;73.17;98765.34;5030099;28;20465;-74
2022/10/28 09:04:30;;;;;;;8.43;6.70;;;16.20;90.10;;;16.41;73.69;98763.56;5036715;28;20545;-72
2022/10/28 09:06:57;;;;;;;6.70;5.67;;;16.20;90.00;;;16.32;73.61;98749.47;5038659;28;20480;-70
2022/10/28 09:09:25;;;;;;;6.27;5.67;;;16.20;89.70;;;16.49;73.61;98765.13;5032574;28;20498;-72
2022/10/28 09:12:09;;;;;;;7.77;5.93;;;16.20;90.00;;;16.39;72.02;98709.25;5037286;28;20515;-69
2022/10/28 09:15:07;;;;;;;6.00;5.37;;;16.30;89.60;;;16.85;71.45;98752.31;5036519;28;20475;-71
2022/10/28 09:17:51;;;;;;;9.50;5.93;;;16.50;89.20;;;16.79;71.75;98739.63;5037174;28;20469;-71
2022/10/28 09:20:26;;;;;;;5.40;4.90;;;16.60;88.80;;;16.90;71.12;98746.13;5038401;28;20553;-69
2022/10/28 09:22:58;;;;;;;9.77;5.57;;;16.70;88.50;;;16.99;70.78;98742.81;5038364;28;20540;-71
2022/10/28 09:25:38;;;;;;;9.17;5.23;;;16.70;88.20;;;17.06;69.89;98747.31;5047211;28;20466;-71
2022/10/28 09:28:26;;;;;;;4.90;4.50;;;16.90;87.90;;;17.30;69.20;98753.56;5038126;28;20461;-71
2022/10/28 09:31:04;;;;;;;7.70;5.30;;;17.00;87.50;;;17.55;68.19;98755.97;5035107;28;21269;-72
2022/10/28 09:33:56;;;;;;;8.70;4.57;;;17.20;87.10;;;17.43;67.82;98747.00;5035354;28;20477;-70
2022/10/28 09:36:33;;;;;;;4.77;4.27;;;17.30;86.40;;;17.34;67.52;98745.69;5031154;28;20936;-69
2022/10/28 09:39:01;;;;;;;7.43;4.60;;;17.30;86.00;;;17.50;66.66;98742.22;5036352;28;21045;-70
2022/10/28 09:41:32;;;;;;;9.40;4.13;;;17.40;85.50;;;17.56;66.79;98740.41;5039327;28;20555;-69
2022/10/28 09:44:08;;;;;;;5.57;4.50;;;17.40;85.40;;;17.79;65.39;98744.13;5045653;28;20464;-70
2022/10/28 09:46:36;;;;;;;7.90;4.53;;;17.60;84.70;;;18.23;64.42;98749.00;5040755;28;20555;-71
2022/10/28 09:49:11;;;;;;;9.40;4.47;;;17.90;84.60;;;18.48;63.07;98739.56;5046340;28;20633;-69
2022/10/28 09:51:46;;;;;;;9.17;3.90;;;18.20;83.90;;;18.64;62.20;98738.72;5034980;28;20523;-70
2022/10/28 09:54:14;;;;;;;8.27;4.17;;;18.40;83.40;;;18.63;62.05;98749.91;5039679;28;20477;-69
2022/10/28 09:56:42;;;;;;;7.57;3.93;;;18.50;82.70;;;18.84;61.14;98737.34;5040787;28;20458;-70
2022/10/28 09:59:13;;;;;;;6.10;3.70;;;18.60;82.50;;;19.00;60.41;98743.06;5044325;28;20457;-70
2022/10/28 10:01:44;;;;;;;6.73;3.90;;;18.70;81.80;;;18.88;59.99;98719.34;5041876;28;20457;-70
2022/10/28 10:04:20;;;;;;;8.93;3.87;;;18.80;81.30;;;19.15;59.64;98732.31;5049278;28;20442;-69
2022/10/28 10:06:52;;;;;;;6.50;4.27;;;18.90;81.00;;;19.50;58.14;98727.53;5039139;28;20469;-71
2022/10/28 10:09:23;;;;;;;11.10;3.73;;;19.10;80.40;;;19.54;57.99;98724.00;5036147;28;20464;-69
2022/10/28 10:11:54;;;;;;;5.37;3.70;;;19.20;79.80;;;19.34;58.38;98735.56;5039742;28;20457;-70
2022/10/28 10:14:29;;;;;;;4.83;3.10;;;19.30;79.40;;;19.31;57.52;98729.75;5035275;28;20473;-69
2022/10/28 10:17:00;;;;;;;7.27;3.20;;;19.20;78.60;;;19.48;56.77;98738.72;5040165;28;20460;-72
2022/10/28 10:19:27;;;;;;;4.30;3.20;;;19.20;78.40;;;19.28;57.67;98747.56;5032321;28;20573;-70
2022/10/28 10:21:56;;;;;;;4.17;3.50;;;19.20;78.10;;;19.50;57.26;98733.00;5037032;28;20469;-70
2022/10/28 10:24:32;;;;;;;5.00;3.40;;;19.20;78.20;;;19.65;56.92;98737.84;5034637;28;20486;-70